createdAt,value
2019-03-05T00:00:05.767Z,2.50
2019-03-05T00:02:33.239Z,2.37
2019-03-05T00:05:00.944Z,2.48
2019-03-05T00:07:28.405Z,2.71
2019-03-05T00:09:56.250Z,2.56
2019-03-05T00:12:23.698Z,2.68
2019-03-05T00:14:51.602Z,2.70
2019-03-05T00:17:19.178Z,2.38
2019-03-05T00:19:46.658Z,2.39
2019-03-05T00:22:14.101Z,2.48
2019-03-05T00:25:07.061Z,2.68
2019-03-05T00:28:02.683Z,2.73
2019-03-05T00:30:52.722Z,2.67
2019-03-05T00:33:32.829Z,2.66
2019-03-05T00:36:36.355Z,2.27
2019-03-05T00:39:37.678Z,2.24
2019-03-05T00:42:42.507Z,2.24
2019-03-05T00:46:05.283Z,2.24
2019-03-05T00:49:06.290Z,2.23
2019-03-05T00:52:10.398Z,2.19
2019-03-05T00:55:15.621Z,2.11
2019-03-05T00:58:08.575Z,1.79
2019-03-05T01:01:02.628Z,1.96
2019-03-05T01:04:16.495Z,2.18
2019-03-05T01:06:43.931Z,1.80
2019-03-05T01:09:14.432Z,1.89
2019-03-05T01:11:42.271Z,2.14
2019-03-05T01:14:10.652Z,2.33
2019-03-05T01:16:38.338Z,1.74
2019-03-05T01:19:05.937Z,1.65
2019-03-05T01:21:33.390Z,1.98
2019-03-05T01:24:00.950Z,1.96
2019-03-05T01:26:28.476Z,1.85
2019-03-05T01:28:55.919Z,1.90
2019-03-05T01:31:51.628Z,1.85
2019-03-05T01:34:36.399Z,1.85
2019-03-05T01:37:06.134Z,1.75
2019-03-05T01:39:39.048Z,2.09
2019-03-05T01:42:07.861Z,1.94
2019-03-05T01:44:35.370Z,2.03
2019-03-05T01:47:02.961Z,1.65
2019-03-05T01:49:30.498Z,2.07
2019-03-05T01:51:57.958Z,1.74
2019-03-05T01:54:25.458Z,1.81
2019-03-05T01:56:52.901Z,1.71
2019-03-05T01:59:20.345Z,1.92
2019-03-05T02:01:47.860Z,1.70
2019-03-05T02:04:15.302Z,1.82
2019-03-05T02:06:42.898Z,2.05
2019-03-05T02:09:10.628Z,1.47
2019-03-05T02:11:38.183Z,1.84
2019-03-05T02:14:05.718Z,1.93
2019-03-05T02:16:33.338Z,1.88
2019-03-05T02:19:47.646Z,1.73
2019-03-05T02:22:40.078Z,1.89
2019-03-05T02:25:29.470Z,1.75
2019-03-05T02:28:23.457Z,1.90
2019-03-05T02:31:15.579Z,1.81
2019-03-05T02:34:05.427Z,1.71
2019-03-05T02:36:59.211Z,1.93
2019-03-05T02:39:50.898Z,1.52
2019-03-05T02:43:00.385Z,1.32
2019-03-05T02:45:48.848Z,1.40
2019-03-05T02:48:34.228Z,1.67
2019-03-05T02:51:43.109Z,1.60
2019-03-05T02:54:44.583Z,1.63
2019-03-05T02:57:11.185Z,1.77
2019-03-05T02:59:41.184Z,1.42
2019-03-05T03:02:28.129Z,1.32
2019-03-05T03:05:30.426Z,1.22
2019-03-05T03:07:58.039Z,1.39
2019-03-05T03:10:25.607Z,1.09
2019-03-05T03:12:54.079Z,1.12
2019-03-05T03:15:21.600Z,1.11
2019-03-05T03:17:49.564Z,1.46
2019-03-05T03:20:18.375Z,1.55
2019-03-05T03:22:45.920Z,1.60
2019-03-05T03:25:15.619Z,1.32
2019-03-05T03:27:43.247Z,1.26
2019-03-05T03:30:12.918Z,1.07
2019-03-05T03:32:40.350Z,1.03
2019-03-05T03:35:08.942Z,0.77
2019-03-05T03:37:36.640Z,0.86
2019-03-05T03:40:06.221Z,0.87
2019-03-05T03:42:33.859Z,0.81
2019-03-05T03:45:01.405Z,1.24
2019-03-05T03:47:28.878Z,0.86
2019-03-05T03:49:56.339Z,1.23
2019-03-05T03:52:23.839Z,1.22
2019-03-05T03:54:51.278Z,1.03
2019-03-05T03:57:19.259Z,0.78
2019-03-05T03:59:47.738Z,0.68
2019-03-05T04:02:15.172Z,1.04
2019-03-05T04:04:42.641Z,0.93
2019-03-05T04:07:10.238Z,0.94
2019-03-05T04:09:37.708Z,0.92
2019-03-05T04:12:05.162Z,1.00
2019-03-05T04:14:32.600Z,1.11
2019-03-05T04:17:00.065Z,0.96
2019-03-05T04:19:30.556Z,1.23
2019-03-05T04:21:59.340Z,1.35
2019-03-05T04:24:26.775Z,1.49
2019-03-05T04:26:54.220Z,1.28
2019-03-05T04:29:21.745Z,1.24
2019-03-05T04:31:49.578Z,1.43
2019-03-05T04:34:17.049Z,1.32
2019-03-05T04:36:44.484Z,1.16
2019-03-05T04:39:11.929Z,1.08
2019-03-05T04:41:39.658Z,1.17
2019-03-05T04:44:07.138Z,1.53
2019-03-05T04:46:46.438Z,1.43
2019-03-05T04:49:39.428Z,0.99
2019-03-05T04:52:11.022Z,1.05
2019-03-05T04:54:39.918Z,0.77
2019-03-05T04:57:07.418Z,1.28
2019-03-05T04:59:35.041Z,0.98
2019-03-05T05:02:02.545Z,1.22
2019-03-05T05:04:29.982Z,1.34
2019-03-05T05:06:57.772Z,1.20
2019-03-05T05:09:25.224Z,0.90
2019-03-05T05:11:52.659Z,1.32
2019-03-05T05:14:20.162Z,1.00
2019-03-05T05:16:47.658Z,0.94
2019-03-05T05:19:16.538Z,1.04
2019-03-05T05:21:43.962Z,0.88
2019-03-05T05:24:11.460Z,0.57
2019-03-05T05:26:38.872Z,1.05
2019-03-05T05:29:06.409Z,0.83
2019-03-05T05:31:36.055Z,0.78
2019-03-05T05:34:03.489Z,1.03
2019-03-05T05:36:30.947Z,1.07
2019-03-05T05:38:58.439Z,0.76
2019-03-05T05:41:25.907Z,0.93
2019-03-05T05:43:53.361Z,1.21
2019-03-05T05:46:20.922Z,1.23
2019-03-05T05:48:48.405Z,0.79
2019-03-05T05:51:15.857Z,0.64
2019-03-05T05:53:43.566Z,0.72
2019-03-05T05:56:11.075Z,0.68
2019-03-05T05:58:38.572Z,0.71
2019-03-05T06:01:09.558Z,1.06
2019-03-05T06:03:38.000Z,0.94
2019-03-05T06:06:05.919Z,0.97
2019-03-05T06:08:33.346Z,1.29
2019-03-05T06:11:00.876Z,1.24
2019-03-05T06:13:28.439Z,1.06
2019-03-05T06:15:55.933Z,1.05
2019-03-05T06:18:23.388Z,0.52
2019-03-05T06:20:50.938Z,0.78
2019-03-05T06:23:18.454Z,0.75
2019-03-05T06:25:46.094Z,0.59
2019-03-05T06:28:13.665Z,0.69
2019-03-05T06:30:41.142Z,0.84
2019-03-05T06:33:08.607Z,0.71
2019-03-05T06:35:36.218Z,0.81
2019-03-05T06:38:04.066Z,0.84
2019-03-05T06:40:31.744Z,0.70
2019-03-05T06:42:59.344Z,0.83
2019-03-05T06:45:27.001Z,0.90
2019-03-05T06:47:54.537Z,0.97
2019-03-05T06:50:22.084Z,0.99
2019-03-05T06:52:49.771Z,0.76
2019-03-05T06:55:17.386Z,0.67
2019-03-05T06:57:44.899Z,0.84
2019-03-05T07:00:34.327Z,0.98
2019-03-05T07:03:01.900Z,0.99
2019-03-05T07:06:06.112Z,1.27
2019-03-05T07:08:35.037Z,1.06
2019-03-05T07:11:25.707Z,1.14
2019-03-05T07:13:54.074Z,1.11
2019-03-05T07:16:32.817Z,0.89
2019-03-05T07:19:10.511Z,1.27
2019-03-05T07:22:08.854Z,1.40
2019-03-05T07:24:43.959Z,1.17
2019-03-05T07:27:12.504Z,1.35
2019-03-05T07:29:41.326Z,1.44
2019-03-05T07:32:09.204Z,1.69
2019-03-05T07:34:38.749Z,1.83
2019-03-05T07:37:07.229Z,1.74
2019-03-05T07:39:35.259Z,1.81
2019-03-05T07:42:02.987Z,1.83
2019-03-05T07:44:30.560Z,1.96
2019-03-05T07:46:58.295Z,1.93
2019-03-05T07:49:25.844Z,1.77
2019-03-05T07:51:53.396Z,2.34
2019-03-05T07:54:21.065Z,2.21
2019-03-05T07:56:48.710Z,2.11
2019-03-05T07:59:16.288Z,2.18
2019-03-05T08:01:43.946Z,2.12
2019-03-05T08:04:11.480Z,2.09
2019-03-05T08:06:39.147Z,2.19
2019-03-05T08:09:34.937Z,2.47
2019-03-05T08:12:46.147Z,2.40
2019-03-05T08:15:21.655Z,2.38
2019-03-05T08:17:49.277Z,2.40
2019-03-05T08:20:16.733Z,2.31
2019-03-05T08:22:44.329Z,2.57
2019-03-05T08:25:12.849Z,2.61
2019-03-05T08:27:40.528Z,2.61
2019-03-05T08:30:14.516Z,2.68
2019-03-05T08:32:40.414Z,2.39
2019-03-05T08:35:09.234Z,2.51
2019-03-05T08:37:36.779Z,2.68
2019-03-05T08:40:04.583Z,2.97
2019-03-05T08:42:32.098Z,2.68
2019-03-05T08:44:59.589Z,2.84
2019-03-05T08:47:27.098Z,3.23
2019-03-05T08:49:55.689Z,3.59
2019-03-05T08:52:23.155Z,3.40
2019-03-05T08:54:50.669Z,3.35
2019-03-05T08:57:18.096Z,3.61
2019-03-05T08:59:45.512Z,3.70
2019-03-05T09:02:12.989Z,3.97
2019-03-05T09:04:40.497Z,4.23
2019-03-05T09:07:07.996Z,4.00
2019-03-05T09:09:35.421Z,4.52
2019-03-05T09:12:02.913Z,4.27
2019-03-05T09:14:30.339Z,4.69
2019-03-05T09:16:57.849Z,4.67
2019-03-05T09:19:25.329Z,4.44
2019-03-05T09:21:52.893Z,4.65
2019-03-05T09:24:20.320Z,4.83
2019-03-05T09:26:51.443Z,4.82
2019-03-05T09:29:17.189Z,4.95
2019-03-05T09:31:44.613Z,4.88
2019-03-05T09:34:12.157Z,4.85
2019-03-05T09:36:50.028Z,4.93
2019-03-05T09:39:11.138Z,5.10
2019-03-05T09:41:38.602Z,5.27
2019-03-05T09:44:06.054Z,5.11
2019-03-05T09:46:33.489Z,5.13
2019-03-05T09:49:00.987Z,4.99
2019-03-05T09:51:28.500Z,5.13
2019-03-05T09:53:56.039Z,5.23
2019-03-05T09:56:23.474Z,5.44
2019-03-05T09:58:50.938Z,5.60
2019-03-05T10:01:19.047Z,5.55
2019-03-05T10:03:46.498Z,5.59
2019-03-05T10:06:13.949Z,5.85
2019-03-05T10:08:41.410Z,6.02
2019-03-05T10:11:09.070Z,6.07
2019-03-05T10:13:36.513Z,6.32
2019-03-05T10:16:04.510Z,5.88
2019-03-05T10:18:32.001Z,5.94
2019-03-05T10:20:59.737Z,6.20
2019-03-05T10:23:27.178Z,6.31
2019-03-05T10:25:54.570Z,6.33
2019-03-05T10:28:21.907Z,6.37
2019-03-05T10:30:49.352Z,6.50
2019-03-05T10:33:17.943Z,6.41
2019-03-05T10:35:45.382Z,6.52
2019-03-05T10:38:13.572Z,6.57
2019-03-05T10:40:41.630Z,6.61
2019-03-05T10:43:10.087Z,6.75
2019-03-05T10:45:39.231Z,6.54
2019-03-05T10:48:06.702Z,6.69
2019-03-05T10:50:34.275Z,6.70
2019-03-05T10:53:01.822Z,6.73
2019-03-05T10:55:29.339Z,6.78
2019-03-05T10:57:56.759Z,6.90
2019-03-05T11:00:29.741Z,6.82
2019-03-05T11:02:57.364Z,6.99
2019-03-05T11:05:25.831Z,7.21
2019-03-05T11:07:53.213Z,7.09
2019-03-05T11:10:20.766Z,7.43
2019-03-05T11:12:48.272Z,7.55
2019-03-05T11:15:19.164Z,7.65
2019-03-05T11:17:46.546Z,7.82
2019-03-05T11:20:13.907Z,8.25
2019-03-05T11:22:41.397Z,8.20
2019-03-05T11:25:10.008Z,8.46
2019-03-05T11:27:37.441Z,8.61
2019-03-05T11:30:06.307Z,8.39
2019-03-05T11:32:33.938Z,8.49
2019-03-05T11:35:01.317Z,8.84
2019-03-05T11:37:28.739Z,8.96
2019-03-05T11:39:56.220Z,9.07
2019-03-05T11:42:23.616Z,9.34
2019-03-05T11:44:58.995Z,9.29
2019-03-05T11:47:20.342Z,9.01
2019-03-05T11:49:47.761Z,9.11
2019-03-05T11:52:15.255Z,9.34
2019-03-05T11:54:42.679Z,9.57
2019-03-05T11:57:10.047Z,9.62
2019-03-05T11:59:37.489Z,9.74
2019-03-05T12:02:05.086Z,10.00
2019-03-05T12:04:32.470Z,10.18
2019-03-05T12:07:01.804Z,10.08
2019-03-05T12:09:29.195Z,9.89
2019-03-05T12:11:56.602Z,10.12
2019-03-05T12:14:23.951Z,10.16
2019-03-05T12:16:51.317Z,10.03
2019-03-05T12:19:18.711Z,9.98
2019-03-05T12:21:46.123Z,10.23
2019-03-05T12:24:13.470Z,10.58
2019-03-05T12:26:40.834Z,10.53
2019-03-05T12:29:08.268Z,10.52
2019-03-05T12:31:35.674Z,10.54
2019-03-05T12:34:03.237Z,10.69
2019-03-05T12:36:30.635Z,10.79
2019-03-05T12:38:58.081Z,11.21
2019-03-05T12:41:25.480Z,10.64
2019-03-05T12:43:52.912Z,10.82
2019-03-05T12:46:20.332Z,10.41
2019-03-05T12:48:47.753Z,10.77
2019-03-05T12:51:15.231Z,11.37
2019-03-05T12:53:42.708Z,11.13
2019-03-05T12:56:10.175Z,11.17
2019-03-05T12:58:37.578Z,11.18
2019-03-05T13:01:06.698Z,10.73
2019-03-05T13:03:34.139Z,10.82
2019-03-05T13:06:01.522Z,11.79
2019-03-05T13:08:28.921Z,11.42
2019-03-05T13:10:56.488Z,11.12
2019-03-05T13:13:24.032Z,10.92
2019-03-05T13:15:52.867Z,10.75
2019-03-05T13:18:20.452Z,10.73
2019-03-05T13:20:47.828Z,11.92
2019-03-05T13:23:15.201Z,12.10
2019-03-05T13:25:42.562Z,11.93
2019-03-05T13:28:09.993Z,11.44
2019-03-05T13:30:40.167Z,11.16
2019-03-05T13:33:06.878Z,11.19
2019-03-05T13:35:34.233Z,10.96
2019-03-05T13:38:03.392Z,11.79
2019-03-05T13:40:34.032Z,12.06
2019-03-05T13:43:00.285Z,11.60
2019-03-05T13:45:27.805Z,11.62
2019-03-05T13:48:08.227Z,12.16
2019-03-05T13:50:54.190Z,11.71
2019-03-05T13:54:12.681Z,11.75
2019-03-05T13:57:23.741Z,11.93
2019-03-05T13:59:51.281Z,11.61
2019-03-05T14:02:27.968Z,11.37
2019-03-05T14:05:43.029Z,12.47
2019-03-05T14:08:46.118Z,11.56
2019-03-05T14:11:13.915Z,11.51
2019-03-05T14:13:41.314Z,11.56
2019-03-05T14:16:10.431Z,11.45
2019-03-05T14:18:38.152Z,11.03
2019-03-05T14:21:05.854Z,10.77
2019-03-05T14:23:33.292Z,10.28
2019-03-05T14:26:00.703Z,10.36
2019-03-05T14:28:28.190Z,9.96
2019-03-05T14:30:55.615Z,9.65
2019-03-05T14:33:23.107Z,9.37
2019-03-05T14:35:50.543Z,9.45
2019-03-05T14:38:18.523Z,9.12
2019-03-05T14:40:46.176Z,9.13
2019-03-05T14:43:13.603Z,8.96
2019-03-05T14:45:41.193Z,8.78
2019-03-05T14:48:08.935Z,8.73
2019-03-05T14:50:36.582Z,8.82
2019-03-05T14:53:04.605Z,8.68
2019-03-05T14:55:32.134Z,8.77
2019-03-05T14:57:59.725Z,9.11
2019-03-05T15:00:27.271Z,9.17
2019-03-05T15:02:54.936Z,9.10
2019-03-05T15:05:22.537Z,8.77
2019-03-05T15:07:50.089Z,8.93
2019-03-05T15:10:17.804Z,8.87
2019-03-05T15:12:45.509Z,8.75
2019-03-05T15:15:27.087Z,8.80
2019-03-05T15:17:54.952Z,8.94
2019-03-05T15:20:22.406Z,8.83
2019-03-05T15:22:49.886Z,8.78
2019-03-05T15:25:17.739Z,8.88
2019-03-05T15:27:45.342Z,8.93
2019-03-05T15:30:14.990Z,8.91
2019-03-05T15:32:42.786Z,8.66
2019-03-05T15:35:10.691Z,8.63
2019-03-05T15:37:39.715Z,8.58
2019-03-05T15:40:09.176Z,8.63
2019-03-05T15:42:36.928Z,8.54
2019-03-05T15:45:05.700Z,8.58
2019-03-05T15:47:33.542Z,8.42
2019-03-05T15:50:01.364Z,8.41
2019-03-05T15:52:29.227Z,8.29
2019-03-05T15:54:56.942Z,8.09
2019-03-05T15:57:26.376Z,8.29
2019-03-05T15:59:54.446Z,8.01
2019-03-05T16:02:22.249Z,8.00
2019-03-05T16:04:50.072Z,8.30
2019-03-05T16:07:17.988Z,8.16
2019-03-05T16:09:45.797Z,8.09
2019-03-05T16:12:14.156Z,8.23
2019-03-05T16:14:42.200Z,7.71
2019-03-05T16:17:09.996Z,7.31
2019-03-05T16:19:37.984Z,7.55
2019-03-05T16:22:05.762Z,7.46
2019-03-05T16:24:33.958Z,7.71
2019-03-05T16:27:03.189Z,8.00
2019-03-05T16:29:30.955Z,7.79
2019-03-05T16:32:15.023Z,7.03
2019-03-05T16:34:58.392Z,7.41
2019-03-05T16:37:48.237Z,7.73
2019-03-05T16:40:41.015Z,7.84
2019-03-05T16:43:16.949Z,7.16
2019-03-05T16:46:13.294Z,7.15
2019-03-05T16:49:09.550Z,7.39
2019-03-05T16:52:05.843Z,7.16
2019-03-05T16:54:47.096Z,7.71
2019-03-05T16:57:33.254Z,7.94
2019-03-05T17:00:17.377Z,8.02
2019-03-05T17:03:07.628Z,7.31
2019-03-05T17:06:07.214Z,7.16
2019-03-05T17:08:54.654Z,7.79
2019-03-05T17:11:50.984Z,7.89
2019-03-05T17:14:18.949Z,6.67
2019-03-05T17:16:46.715Z,7.02
2019-03-05T17:19:16.074Z,7.66
2019-03-05T17:21:44.223Z,7.46
2019-03-05T17:24:12.256Z,6.86
2019-03-05T17:26:40.294Z,6.79
2019-03-05T17:29:08.258Z,7.40
2019-03-05T17:31:36.122Z,7.62
2019-03-05T17:34:04.062Z,7.55
2019-03-05T17:36:32.047Z,6.81
2019-03-05T17:39:00.099Z,6.99
2019-03-05T17:41:28.092Z,7.24
2019-03-05T17:43:56.659Z,7.19
2019-03-05T17:46:24.655Z,7.41
2019-03-05T17:48:52.707Z,6.72
2019-03-05T17:51:20.550Z,6.64
2019-03-05T17:53:48.601Z,7.21
2019-03-05T17:56:18.755Z,7.39
2019-03-05T17:58:46.762Z,7.03
2019-03-05T18:01:16.236Z,7.12
2019-03-05T18:03:44.657Z,7.25
2019-03-05T18:06:12.740Z,6.93
2019-03-05T18:08:41.420Z,6.63
2019-03-05T18:11:09.450Z,6.18
2019-03-05T18:13:37.407Z,6.09
2019-03-05T18:16:05.369Z,6.80
2019-03-05T18:18:33.405Z,6.82
2019-03-05T18:21:03.383Z,6.13
2019-03-05T18:23:31.215Z,6.65
2019-03-05T18:26:00.547Z,6.54
2019-03-05T18:28:28.904Z,6.98
2019-03-05T18:30:56.927Z,7.68
2019-03-05T18:33:24.898Z,7.89
2019-03-05T18:35:52.884Z,8.17
2019-03-05T18:38:20.852Z,7.84
2019-03-05T18:40:48.962Z,7.98
2019-03-05T18:43:16.984Z,8.33
2019-03-05T18:45:45.582Z,7.21
2019-03-05T18:48:14.817Z,6.73
2019-03-05T18:50:42.766Z,7.27
2019-03-05T18:53:10.877Z,7.08
2019-03-05T18:55:38.936Z,6.86
2019-03-05T18:58:06.912Z,6.53
2019-03-05T19:00:34.997Z,6.43
2019-03-05T19:03:03.884Z,6.23
2019-03-05T19:05:31.948Z,6.31
2019-03-05T19:08:00.152Z,6.56
2019-03-05T19:10:28.625Z,6.37
2019-03-05T19:12:58.692Z,6.37
2019-03-05T19:15:26.645Z,6.34
2019-03-05T19:17:54.628Z,6.19
2019-03-05T19:20:23.402Z,6.48
2019-03-05T19:22:51.879Z,6.51
2019-03-05T19:25:24.781Z,6.32
2019-03-05T19:27:55.605Z,6.18
2019-03-05T19:30:26.737Z,6.16
2019-03-05T19:32:56.891Z,6.80
2019-03-05T19:35:24.915Z,6.80
2019-03-05T19:37:53.014Z,6.34
2019-03-05T19:40:26.629Z,6.40
2019-03-05T19:42:54.751Z,6.09
2019-03-05T19:45:23.094Z,5.98
2019-03-05T19:47:51.359Z,6.44
2019-03-05T19:50:19.423Z,6.59
2019-03-05T19:52:48.066Z,6.45
2019-03-05T19:55:19.922Z,6.28
2019-03-05T19:57:47.918Z,6.30
2019-03-05T20:00:20.482Z,6.28
2019-03-05T20:02:48.577Z,6.23
2019-03-05T20:05:20.927Z,6.15
2019-03-05T20:07:49.108Z,5.94
2019-03-05T20:10:18.970Z,5.98
2019-03-05T20:12:47.031Z,6.28
2019-03-05T20:15:17.226Z,6.34
2019-03-05T20:17:48.411Z,5.89
2019-03-05T20:20:17.084Z,5.68
2019-03-05T20:22:46.026Z,5.52
2019-03-05T20:25:16.247Z,5.54
2019-03-05T20:27:50.948Z,5.41
2019-03-05T20:30:25.659Z,5.42
2019-03-05T20:32:59.917Z,5.39
2019-03-05T20:35:29.978Z,5.52
2019-03-05T20:38:02.646Z,5.59
2019-03-05T20:40:31.202Z,5.64
2019-03-05T20:42:59.432Z,5.36
2019-03-05T20:45:28.723Z,5.76
2019-03-05T20:47:59.854Z,5.48
2019-03-05T20:50:29.645Z,5.24
2019-03-05T20:52:59.058Z,5.25
2019-03-05T20:55:28.844Z,5.17
2019-03-05T20:58:04.931Z,5.19
2019-03-05T21:00:34.648Z,5.52
2019-03-05T21:03:06.137Z,5.42
2019-03-05T21:05:37.619Z,5.43
2019-03-05T21:08:09.005Z,5.31
2019-03-05T21:10:46.060Z,5.44
2019-03-05T21:13:16.826Z,5.37
2019-03-05T21:15:44.895Z,5.43
2019-03-05T21:18:13.031Z,5.43
2019-03-05T21:20:41.452Z,5.26
2019-03-05T21:23:10.850Z,5.55
2019-03-05T21:25:39.054Z,5.82
2019-03-05T21:28:11.266Z,5.60
2019-03-05T21:30:39.291Z,5.43
2019-03-05T21:33:07.419Z,5.23
2019-03-05T21:35:35.435Z,5.21
2019-03-05T21:38:03.496Z,5.01
2019-03-05T21:40:31.621Z,5.10
2019-03-05T21:42:59.750Z,5.36
2019-03-05T21:45:35.136Z,5.12
2019-03-05T21:48:04.345Z,4.99
2019-03-05T21:50:32.304Z,4.94
2019-03-05T21:53:00.297Z,5.07
2019-03-05T21:55:28.288Z,5.08
2019-03-05T21:57:56.176Z,4.86
2019-03-05T22:00:25.960Z,4.93
2019-03-05T22:02:53.624Z,5.01
2019-03-05T22:05:21.090Z,5.06
2019-03-05T22:07:48.786Z,5.08
2019-03-05T22:10:17.753Z,5.17
2019-03-05T22:12:45.315Z,5.03
2019-03-05T22:15:14.645Z,5.11
2019-03-05T22:17:42.072Z,5.11
2019-03-05T22:20:11.152Z,5.12
2019-03-05T22:22:38.606Z,5.23
2019-03-05T22:25:06.438Z,5.04
2019-03-05T22:27:33.890Z,4.92
2019-03-05T22:30:01.396Z,4.94
2019-03-05T22:32:28.830Z,4.93
2019-03-05T22:34:56.263Z,4.94
2019-03-05T22:37:23.732Z,4.86
2019-03-05T22:39:51.794Z,4.80
2019-03-05T22:42:19.229Z,4.86
2019-03-05T22:44:46.665Z,4.85
2019-03-05T22:47:14.109Z,4.88
2019-03-05T22:49:41.554Z,4.61
2019-03-05T22:52:08.926Z,4.75
2019-03-05T22:54:36.488Z,4.48
2019-03-05T22:57:04.018Z,4.72
2019-03-05T22:59:31.385Z,4.69
2019-03-05T23:01:58.887Z,4.60
2019-03-05T23:04:35.928Z,4.64
2019-03-05T23:07:04.093Z,4.60
2019-03-05T23:09:31.640Z,4.60
2019-03-05T23:11:59.171Z,4.69
2019-03-05T23:14:26.614Z,4.63
2019-03-05T23:16:54.087Z,4.75
2019-03-05T23:19:21.592Z,4.71
2019-03-05T23:21:49.074Z,4.68
2019-03-05T23:24:16.898Z,4.60
2019-03-05T23:26:44.288Z,4.61
2019-03-05T23:29:12.811Z,4.66
2019-03-05T23:31:40.758Z,4.61
2019-03-05T23:34:08.147Z,4.51
2019-03-05T23:36:35.691Z,4.44
2019-03-05T23:39:04.652Z,4.44
2019-03-05T23:41:32.052Z,4.51
2019-03-05T23:43:59.703Z,4.67
2019-03-05T23:46:27.211Z,4.58
2019-03-05T23:48:54.613Z,4.48
2019-03-05T23:51:22.018Z,4.48
2019-03-05T23:53:49.432Z,4.61
2019-03-05T23:56:16.895Z,4.55
2019-03-05T23:58:44.339Z,4.41
